Time;durP1;ratioP1;P1;durP2;ratioP2;P2;SDS_P1;SDS_P2;PMS_P1;PMS_P2;Temp;Humidity;BMP_temperature;BMP_pressure;BME280_temperature;BME280_humidity;BME280_pressure;Samples;Min_cycle;Max_cycle;Signal;HPM_P1;HPM_P2
2021/12/02 00:02:44;;;;;;;2.27;0.67;;;16.70;50.90;;;;;;10421943;28;20649;-64
2021/12/02 00:08:07;;;;;;;1.50;0.50;;;16.70;51.00;;;;;;10493208;28;20710;-63
2021/12/02 00:13:31;;;;;;;3.30;0.60;;;16.70;51.10;;;;;;10483182;28;20288;-63
2021/12/02 00:24:36;;;;;;;1.27;0.50;;;16.60;51.10;;;;;;10433405;22;20731;-65
2021/12/02 00:30:02;;;;;;;1.13;0.40;;;16.60;50.90;;;;;;10416103;28;20302;-65
2021/12/02 00:35:26;;;;;;;1.70;0.50;;;16.70;50.70;;;;;;10392516;28;20205;-65
2021/12/02 00:40:48;;;;;;;0.77;0.30;;;16.70;50.40;;;;;;10379054;28;20232;-65
2021/12/02 00:46:13;;;;;;;1.33;0.30;;;16.70;50.40;;;;;;10379958;28;20572;-65
2021/12/02 00:51:36;;;;;;;1.37;0.30;;;16.70;50.60;;;;;;10380454;28;20218;-65
2021/12/02 00:57:02;;;;;;;1.00;0.30;;;16.70;50.60;;;;;;10379700;28;20566;-64
2021/12/02 01:02:24;;;;;;;1.17;0.50;;;16.70;50.70;;;;;;10380140;28;20210;-65
2021/12/02 01:07:48;;;;;;;1.17;0.50;;;16.60;50.80;;;;;;10378298;28;20565;-64
2021/12/02 01:13:10;;;;;;;0.83;0.37;;;16.60;50.80;;;;;;10381353;28;20214;-65
2021/12/02 01:18:32;;;;;;;0.80;0.50;;;16.60;50.90;;;;;;10380398;28;20277;-65
2021/12/02 01:24:00;;;;;;;0.60;0.37;;;16.60;51.00;;;;;;10380385;28;20229;-65
2021/12/02 01:29:24;;;;;;;1.60;0.50;;;16.60;51.00;;;;;;10380258;28;20325;-65
2021/12/02 01:34:48;;;;;;;1.37;0.60;;;16.60;50.90;;;;;;10381867;28;20668;-65
2021/12/02 01:40:12;;;;;;;2.07;0.57;;;16.60;50.60;;;;;;10380059;28;20225;-65
2021/12/02 01:45:39;;;;;;;1.50;0.60;;;16.70;50.30;;;;;;10379525;28;20573;-65
2021/12/02 01:51:03;;;;;;;4.87;0.63;;;16.70;50.20;;;;;;10379941;28;20211;-65
2021/12/02 01:56:31;;;;;;;0.87;0.40;;;16.70;50.40;;;;;;10379481;28;20589;-65
2021/12/02 02:01:58;;;;;;;1.73;0.53;;;16.70;50.50;;;;;;10377295;28;20218;-65
2021/12/02 02:07:20;;;;;;;2.63;0.80;;;16.60;50.50;;;;;;10377301;28;20195;-65
2021/12/02 02:12:43;;;;;;;0.87;0.40;;;16.60;50.60;;;;;;10377447;28;20644;-64
2021/12/02 02:18:10;;;;;;;1.83;0.70;;;16.50;50.50;;;;;;10376291;28;20218;-65
2021/12/02 02:23:38;;;;;;;0.83;0.33;;;16.50;50.50;;;;;;10375632;28;20218;-65
2021/12/02 02:29:00;;;;;;;1.37;0.50;;;16.60;50.50;;;;;;10370085;28;20218;-65
2021/12/02 02:34:24;;;;;;;0.60;0.40;;;16.50;50.30;;;;;;10376256;28;20218;-65
2021/12/02 02:39:47;;;;;;;2.57;0.60;;;16.50;50.40;;;;;;10377079;28;20222;-65
2021/12/02 02:45:09;;;;;;;1.67;0.50;;;16.50;50.40;;;;;;10374713;28;20677;-64
2021/12/02 02:50:33;;;;;;;0.57;0.40;;;16.60;50.20;;;;;;10334910;28;20578;-65
2021/12/02 02:56:05;;;;;;;1.17;0.50;;;16.60;50.20;;;;;;10334963;28;20195;-65
2021/12/02 03:01:37;;;;;;;1.27;0.50;;;16.60;50.20;;;;;;10372447;28;20308;-65
2021/12/02 03:07:04;;;;;;;1.50;0.50;;;16.60;50.30;;;;;;10375040;28;20203;-65
2021/12/02 03:12:31;;;;;;;0.63;0.50;;;16.50;50.30;;;;;;10375787;28;20211;-65
2021/12/02 03:17:53;;;;;;;1.90;0.63;;;16.50;50.20;;;;;;10376990;28;20254;-65
2021/12/02 03:23:15;;;;;;;0.60;0.40;;;16.50;50.30;;;;;;10375996;28;20226;-65
2021/12/02 03:28:39;;;;;;;1.90;0.60;;;16.50;50.30;;;;;;10374511;28;20198;-65
2021/12/02 03:34:04;;;;;;;1.10;0.47;;;16.60;50.30;;;;;;10374601;28;20222;-64
2021/12/02 03:39:26;;;;;;;1.87;0.57;;;16.60;50.10;;;;;;10374668;28;20293;-65
2021/12/02 03:44:50;;;;;;;0.53;0.27;;;16.60;49.80;;;;;;10374016;28;20800;-65
2021/12/02 03:50:12;;;;;;;1.60;0.60;;;16.60;49.90;;;;;;10372818;28;20226;-65
2021/12/02 03:55:34;;;;;;;1.77;0.60;;;16.50;49.80;;;;;;10371320;28;20210;-65
2021/12/02 04:00:57;;;;;;;1.30;0.50;;;16.50;49.90;;;;;;10373009;28;20713;-65
2021/12/02 04:06:20;;;;;;;2.00;0.70;;;16.50;50.00;;;;;;10374701;28;20670;-65
2021/12/02 04:11:46;;;;;;;1.07;0.47;;;16.50;50.10;;;;;;10378545;28;20677;-65
2021/12/02 04:17:12;;;;;;;1.10;0.63;;;16.50;50.10;;;;;;10381746;28;20241;-65
2021/12/02 04:22:35;;;;;;;1.77;0.53;;;16.50;50.00;;;;;;10390976;28;20233;-64
2021/12/02 04:27:57;;;;;;;1.47;0.67;;;16.50;49.80;;;;;;10383809;28;20198;-64
2021/12/02 04:33:20;;;;;;;0.97;0.50;;;16.60;49.70;;;;;;10383292;28;20221;-64
2021/12/02 04:38:42;;;;;;;0.83;0.40;;;16.60;49.60;;;;;;10383623;28;20222;-64
2021/12/02 04:44:05;;;;;;;2.03;0.63;;;16.60;49.70;;;;;;10386555;28;20214;-65
2021/12/02 04:49:29;;;;;;;1.77;0.43;;;16.60;49.50;;;;;;10387866;28;20197;-65
2021/12/02 04:54:51;;;;;;;1.70;0.57;;;16.60;49.60;;;;;;10383020;28;20230;-65
2021/12/02 05:00:14;;;;;;;0.80;0.53;;;16.60;49.70;;;;;;10386613;28;20218;-65
2021/12/02 05:05:38;;;;;;;1.10;0.50;;;16.60;49.60;;;;;;10370224;28;20201;-65
2021/12/02 05:11:00;;;;;;;1.07;0.53;;;16.60;49.50;;;;;;10388373;28;20214;-67
2021/12/02 05:16:22;;;;;;;1.13;0.40;;;16.60;49.60;;;;;;10387349;28;20198;-65
2021/12/02 05:21:45;;;;;;;1.47;0.37;;;16.50;49.60;;;;;;10389216;28;20221;-65
2021/12/02 05:27:08;;;;;;;3.07;0.70;;;16.50;49.40;;;;;;10389900;28;20199;-65
2021/12/02 05:32:30;;;;;;;3.23;0.60;;;16.60;49.20;;;;;;10382841;28;20242;-64
2021/12/02 05:37:54;;;;;;;1.20;0.50;;;16.70;48.50;;;;;;10384107;28;20812;-65
2021/12/02 05:43:16;;;;;;;1.30;0.40;;;16.70;48.30;;;;;;10382819;28;20225;-65
2021/12/02 05:48:40;;;;;;;1.87;0.50;;;16.70;48.50;;;;;;10382143;28;20206;-65
2021/12/02 05:54:03;;;;;;;1.40;0.43;;;16.70;48.60;;;;;;10375862;28;20587;-65
2021/12/02 05:59:25;;;;;;;1.40;0.50;;;16.70;48.80;;;;;;10379194;28;20218;-65
2021/12/02 06:04:51;;;;;;;1.73;0.70;;;16.60;48.80;;;;;;10373390;28;20225;-63
2021/12/02 06:10:14;;;;;;;3.20;0.73;;;16.60;49.00;;;;;;10378515;28;20333;-63
2021/12/02 06:15:36;;;;;;;3.10;0.70;;;16.50;49.00;;;;;;10378106;28;20578;-63
2021/12/02 06:20:58;;;;;;;3.27;0.60;;;16.50;49.20;;;;;;10379035;28;20222;-63
2021/12/02 06:26:22;;;;;;;1.47;0.63;;;16.50;49.00;;;;;;10375087;28;20574;-63
2021/12/02 06:31:44;;;;;;;2.07;0.70;;;16.60;48.80;;;;;;10374619;28;20206;-63
2021/12/02 06:37:06;;;;;;;1.33;0.67;;;16.60;48.30;;;;;;10374905;28;20201;-63
2021/12/02 06:42:29;;;;;;;1.43;0.60;;;16.70;48.30;;;;;;10373033;28;20226;-63
2021/12/02 06:47:56;;;;;;;2.77;0.60;;;16.70;48.20;;;;;;10376597;28;20269;-63
2021/12/02 06:53:19;;;;;;;3.20;0.80;;;16.80;48.20;;;;;;10366776;28;20226;-67
2021/12/02 06:58:43;;;;;;;1.87;0.73;;;16.80;48.20;;;;;;10365261;28;20236;-63
2021/12/02 07:04:07;;;;;;;3.03;1.00;;;16.70;48.30;;;;;;10355662;28;20222;-69
2021/12/02 07:09:29;;;;;;;1.97;0.97;;;16.70;48.30;;;;;;10369635;28;20547;-69
2021/12/02 07:14:53;;;;;;;1.63;0.80;;;16.70;48.50;;;;;;10362086;28;20233;-68
2021/12/02 07:20:15;;;;;;;2.40;0.70;;;16.60;48.60;;;;;;10370914;28;20236;-69
2021/12/02 07:25:40;;;;;;;2.10;0.90;;;16.60;48.80;;;;;;10370603;28;20205;-69
2021/12/02 07:31:05;;;;;;;3.07;0.73;;;16.60;49.00;;;;;;10370478;28;20218;-71
2021/12/02 07:36:28;;;;;;;2.43;0.97;;;16.50;49.00;;;;;;10352801;28;20191;-69
2021/12/02 07:41:50;;;;;;;3.77;1.07;;;16.50;48.80;;;;;;10370195;28;20795;-68
2021/12/02 07:47:14;;;;;;;2.60;0.90;;;16.60;48.30;;;;;;10362128;28;20199;-69
2021/12/02 07:52:41;;;;;;;2.00;0.77;;;16.70;48.20;;;;;;10355544;28;20214;-69
2021/12/02 07:58:06;;;;;;;2.47;1.00;;;16.80;48.00;;;;;;10369481;28;20229;-69
2021/12/02 08:03:30;;;;;;;2.33;1.00;;;16.80;47.60;;;;;;10370113;28;20292;-69
2021/12/02 08:08:52;;;;;;;2.90;0.93;;;16.80;47.50;;;;;;10369492;28;20198;-69
2021/12/02 08:14:16;;;;;;;2.80;0.80;;;16.80;47.60;;;;;;10368272;28;20218;-70
2021/12/02 08:19:39;;;;;;;1.97;0.83;;;16.70;48.00;;;;;;10367013;28;20260;-64
2021/12/02 08:25:02;;;;;;;2.30;0.77;;;16.70;48.50;;;;;;10368724;28;20236;-66
2021/12/02 08:30:26;;;;;;;2.20;1.00;;;16.70;48.90;;;;;;10353344;28;20187;-66
2021/12/02 08:35:49;;;;;;;2.13;1.10;;;16.70;49.10;;;;;;10371425;28;20217;-66
2021/12/02 08:41:13;;;;;;;2.27;0.90;;;16.60;49.10;;;;;;10368940;28;20563;-66
2021/12/02 08:46:35;;;;;;;1.83;0.93;;;16.70;49.30;;;;;;10364374;28;20594;-66
2021/12/02 08:51:58;;;;;;;2.27;0.97;;;16.60;49.40;;;;;;10368214;28;20572;-67
2021/12/02 08:57:23;;;;;;;3.03;0.90;;;16.60;49.50;;;;;;10367955;28;20206;-66
2021/12/02 09:02:45;;;;;;;3.97;1.93;;;16.60;49.40;;;;;;10367112;28;20227;-66
2021/12/02 09:08:09;;;;;;;2.80;1.47;;;16.70;49.10;;;;;;10375439;28;20187;-68
2021/12/02 09:13:31;;;;;;;3.43;1.50;;;16.70;48.90;;;;;;10375889;28;20210;-66
2021/12/02 09:18:54;;;;;;;2.77;1.30;;;16.70;48.90;;;;;;10375999;28;20211;-67
2021/12/02 09:24:19;;;;;;;1.90;1.00;;;16.70;49.00;;;;;;10375251;28;20221;-67
2021/12/02 09:29:41;;;;;;;3.17;1.33;;;16.70;49.60;;;;;;10380278;28;20218;-64
2021/12/02 09:35:04;;;;;;;2.57;1.20;;;16.70;49.20;;;;;;10373217;28;20230;-64
2021/12/02 09:40:28;;;;;;;2.53;1.07;;;16.70;49.30;;;;;;10350206;28;20226;-65
2021/12/02 09:45:50;;;;;;;2.43;0.90;;;16.70;49.40;;;;;;10376308;28;20201;-64
2021/12/02 09:51:15;;;;;;;3.67;0.90;;;16.70;49.90;;;;;;10359339;28;20232;-64
2021/12/02 09:56:41;;;;;;;1.10;0.60;;;16.60;50.00;;;;;;10373652;28;20214;-64
2021/12/02 10:02:06;;;;;;;2.57;0.93;;;16.60;50.10;;;;;;10374377;28;20322;-64
2021/12/02 10:07:32;;;;;;;2.20;0.80;;;16.60;50.00;;;;;;10373479;28;20203;-64
2021/12/02 10:13:12;;;;;;;2.03;0.83;;;16.70;49.80;;;;;;10375171;28;20763;-64
2021/12/02 10:18:48;;;;;;;1.57;0.60;;;16.70;49.50;;;;;;10370020;28;20198;-64
2021/12/02 10:24:13;;;;;;;1.20;0.60;;;16.70;49.70;;;;;;10374230;28;20693;-64
2021/12/02 10:29:38;;;;;;;2.00;0.80;;;16.70;49.70;;;;;;10374103;28;20213;-64
2021/12/02 10:35:02;;;;;;;2.93;0.97;;;16.70;49.90;;;;;;10373818;28;20221;-64
2021/12/02 10:40:24;;;;;;;2.20;1.00;;;16.70;50.00;;;;;;10358376;28;20219;-63
2021/12/02 10:45:47;;;;;;;1.13;0.80;;;16.70;50.10;;;;;;10374791;28;20720;-64
2021/12/02 10:51:32;;;;;;;2.73;1.20;;;16.60;50.20;;;;;;10379324;28;20222;-64
2021/12/02 10:56:56;;;;;;;2.93;0.80;;;16.60;50.20;;;;;;10371273;28;20711;-66
2021/12/02 11:02:23;;;;;;;2.97;0.83;;;16.60;50.20;;;;;;10370350;28;20218;-64
2021/12/02 11:07:53;;;;;;;2.13;0.90;;;16.60;49.80;;;;;;10374438;28;20273;-65
2021/12/02 11:13:20;;;;;;;2.07;0.90;;;16.70;49.30;;;;;;10374437;28;20226;-64
2021/12/02 11:18:44;;;;;;;1.40;1.00;;;16.80;48.90;;;;;;10362499;28;20195;-64
2021/12/02 11:24:08;;;;;;;2.63;1.00;;;16.80;48.80;;;;;;10370561;28;20261;-65
2021/12/02 11:29:48;;;;;;;2.23;0.93;;;16.80;49.20;;;;;;10370975;28;20658;-65
2021/12/02 11:35:18;;;;;;;1.80;0.77;;;16.70;49.30;;;;;;10370294;28;20578;-66
2021/12/02 11:40:42;;;;;;;1.60;0.80;;;16.70;49.40;;;;;;10355205;28;20215;-65
2021/12/02 11:46:07;;;;;;;2.63;1.00;;;16.70;49.70;;;;;;10369397;28;20680;-66
2021/12/02 11:51:30;;;;;;;3.20;1.10;;;16.70;49.70;;;;;;10354962;28;20721;-67
2021/12/02 11:56:53;;;;;;;1.80;1.10;;;16.60;49.70;;;;;;10360199;28;20206;-68
2021/12/02 12:02:17;;;;;;;1.73;0.90;;;16.60;49.60;;;;;;10369894;28;20756;-66
2021/12/02 12:07:46;;;;;;;4.20;1.20;;;16.60;49.50;;;;;;10363563;28;20695;-65
2021/12/02 12:13:20;;;;;;;1.17;0.90;;;16.70;49.20;;;;;;10375340;28;20213;-65
2021/12/02 12:18:42;;;;;;;3.73;1.23;;;16.80;48.20;;;;;;10358818;28;20210;-65
2021/12/02 12:24:07;;;;;;;2.10;0.90;;;16.80;47.90;;;;;;10391136;22;20230;-63
2021/12/02 12:29:33;;;;;;;3.63;0.90;;;16.80;48.00;;;;;;10310151;28;20700;-61
2021/12/02 12:35:03;;;;;;;1.50;0.73;;;16.80;48.20;;;;;;10321238;28;20211;-65
2021/12/02 12:40:41;;;;;;;1.67;1.10;;;16.80;48.40;;;;;;10318793;28;20296;-65
2021/12/02 12:46:22;;;;;;;1.70;0.70;;;16.80;48.40;;;;;;10301101;28;20217;-65
2021/12/02 12:51:50;;;;;;;1.87;0.60;;;16.80;49.00;;;;;;10323571;28;20495;-64
2021/12/02 12:57:14;;;;;;;3.10;0.80;;;16.70;49.10;;;;;;10318159;28;20589;-65
2021/12/02 13:02:54;;;;;;;0.73;0.60;;;16.70;49.20;;;;;;10328888;28;20266;-64
2021/12/02 13:08:18;;;;;;;4.67;0.90;;;16.70;49.20;;;;;;10334332;28;20290;-66
2021/12/02 13:13:43;;;;;;;3.10;0.70;;;16.70;49.40;;;;;;10328679;28;20203;-68
2021/12/02 13:19:12;;;;;;;2.50;1.05;;;16.70;49.40;;;;;;10326057;28;20435;-64
2021/12/02 13:24:36;;;;;;;2.63;0.93;;;17.60;46.80;;;;;;10327916;28;20215;-67
2021/12/02 13:29:59;;;;;;;4.43;1.10;;;17.10;48.50;;;;;;10328022;28;20183;-67
2021/12/02 13:35:26;;;;;;;1.37;0.80;;;17.00;48.20;;;;;;10327692;28;20246;-66
2021/12/02 13:40:48;;;;;;;1.20;0.60;;;17.10;47.90;;;;;;10327831;28;20362;-67
2021/12/02 13:46:13;;;;;;;1.20;0.60;;;17.10;47.50;;;;;;10329213;28;20234;-66
2021/12/02 13:57:41;;;;;;;1.07;0.73;;;17.20;46.60;;;;;;10331103;28;20239;-66
2021/12/02 14:03:09;;;;;;;1.63;0.60;;;17.20;46.70;;;;;;10330748;28;20382;-66
2021/12/02 14:08:33;;;;;;;1.13;0.70;;;17.10;47.20;;;;;;10324631;28;20222;-66
2021/12/02 14:13:57;;;;;;;1.30;0.70;;;17.10;47.90;;;;;;10327054;28;21014;-65
2021/12/02 14:19:20;;;;;;;2.77;1.10;;;17.00;48.20;;;;;;10325830;28;20604;-65
2021/12/02 14:24:43;;;;;;;2.47;1.10;;;17.00;48.20;;;;;;10323429;28;20214;-65
2021/12/02 14:30:14;;;;;;;1.97;1.17;;;16.90;48.60;;;;;;10331255;28;20206;-64
2021/12/02 14:35:45;;;;;;;2.23;0.90;;;16.90;48.70;;;;;;10329134;28;20234;-65
2021/12/02 14:41:11;;;;;;;2.27;1.27;;;16.80;48.90;;;;;;10330933;28;20226;-65
2021/12/02 14:46:36;;;;;;;1.37;0.70;;;16.80;49.20;;;;;;10322647;28;20226;-65
2021/12/02 14:52:05;;;;;;;1.97;1.33;;;16.80;49.40;;;;;;10329626;28;20653;-65
2021/12/02 14:57:29;;;;;;;3.17;1.38;;;16.80;49.40;;;;;;10324691;28;20424;-65
2021/12/02 15:02:58;;;;;;;1.90;1.10;;;17.50;47.10;;;;;;10321512;28;20688;-65
2021/12/02 15:08:33;;;;;;;2.13;1.00;;;17.10;47.70;;;;;;10323367;28;20211;-65
2021/12/02 15:13:55;;;;;;;1.67;1.00;;;17.00;47.30;;;;;;10290517;28;20323;-64
2021/12/02 15:19:32;;;;;;;2.17;1.40;;;17.00;47.60;;;;;;10289597;28;20215;-64
2021/12/02 15:25:08;;;;;;;5.03;1.20;;;17.10;47.30;;;;;;10316482;28;20434;-64
2021/12/02 15:30:32;;;;;;;2.70;1.10;;;17.10;46.30;;;;;;10327573;28;20190;-64
2021/12/02 15:35:58;;;;;;;2.33;1.10;;;17.10;46.60;;;;;;10314577;28;20387;-64
2021/12/02 15:41:23;;;;;;;1.37;0.97;;;17.00;47.00;;;;;;10327208;28;20207;-64
2021/12/02 15:46:46;;;;;;;3.43;1.50;;;17.00;47.00;;;;;;10327154;28;20219;-65
2021/12/02 15:52:08;;;;;;;4.13;1.73;;;16.90;47.00;;;;;;10326814;28;20204;-64
2021/12/02 15:57:32;;;;;;;1.93;1.70;;;16.90;47.10;;;;;;10318436;28;20226;-64
2021/12/02 16:02:56;;;;;;;2.13;1.50;;;16.90;47.40;;;;;;10295580;28;20226;-64
2021/12/02 16:08:24;;;;;;;3.40;1.40;;;16.80;47.50;;;;;;10300082;28;20795;-64
2021/12/02 16:13:48;;;;;;;2.80;1.57;;;16.80;47.50;;;;;;10316142;28;20301;-64
2021/12/02 16:19:10;;;;;;;1.57;1.27;;;16.80;47.80;;;;;;10323034;28;20217;-63
2021/12/02 16:24:34;;;;;;;4.00;2.50;;;16.70;48.00;;;;;;10286641;28;20685;-63
2021/12/02 16:29:58;;;;;;;3.27;2.03;;;16.70;48.20;;;;;;10306185;28;20195;-63
2021/12/02 16:35:20;;;;;;;3.67;2.07;;;16.70;48.00;;;;;;10319393;28;20616;-64
2021/12/02 16:40:43;;;;;;;2.03;1.50;;;16.70;47.80;;;;;;10318101;28;20214;-64
2021/12/02 16:46:07;;;;;;;3.37;1.60;;;16.80;47.50;;;;;;10323229;28;20731;-63
2021/12/02 16:51:30;;;;;;;2.23;1.77;;;16.80;47.40;;;;;;10308065;28;20199;-64
2021/12/02 16:56:52;;;;;;;2.77;1.30;;;16.80;48.00;;;;;;10325202;28;20223;-63
2021/12/02 17:02:16;;;;;;;3.10;1.37;;;16.90;48.40;;;;;;10299963;28;20227;-63
2021/12/02 17:07:39;;;;;;;2.00;1.23;;;16.90;48.80;;;;;;10309535;28;20306;-62
2021/12/02 17:13:03;;;;;;;1.67;1.37;;;16.90;49.00;;;;;;10304405;28;20621;-62
2021/12/02 17:18:26;;;;;;;1.43;1.20;;;16.90;49.30;;;;;;10319966;28;20286;-62
2021/12/02 17:23:49;;;;;;;1.10;0.90;;;16.80;49.30;;;;;;10313988;28;20222;-62
2021/12/02 17:29:13;;;;;;;3.47;1.50;;;16.80;49.40;;;;;;10305710;28;20342;-64
2021/12/02 17:34:38;;;;;;;1.00;0.90;;;16.80;49.40;;;;;;10293287;28;20206;-64
2021/12/02 17:40:00;;;;;;;2.33;1.50;;;16.80;49.50;;;;;;10323578;28;20191;-62
2021/12/02 17:45:23;;;;;;;3.83;1.43;;;16.80;49.20;;;;;;10332009;28;20692;-64
2021/12/02 17:50:49;;;;;;;1.30;1.20;;;16.80;48.60;;;;;;10331832;28;20293;-63
2021/12/02 17:56:11;;;;;;;1.53;1.27;;;16.90;48.20;;;;;;10331451;28;20215;-63
2021/12/02 18:01:33;;;;;;;2.90;1.27;;;16.90;48.20;;;;;;10329230;28;20210;-63
2021/12/02 18:06:57;;;;;;;2.57;1.50;;;16.90;48.20;;;;;;10330544;28;20219;-65
2021/12/02 18:12:19;;;;;;;2.03;1.53;;;16.90;48.40;;;;;;10331069;28;20202;-66
2021/12/02 18:17:41;;;;;;;2.20;1.43;;;16.90;48.40;;;;;;10328506;28;20230;-64
2021/12/02 18:23:05;;;;;;;2.90;1.40;;;16.90;48.50;;;;;;10332284;28;20574;-64
2021/12/02 18:28:27;;;;;;;3.03;1.33;;;16.80;48.40;;;;;;10312304;28;20223;-65
2021/12/02 18:33:50;;;;;;;2.10;1.10;;;16.80;48.40;;;;;;10301398;28;20193;-66
2021/12/02 18:39:14;;;;;;;2.77;1.53;;;16.80;48.40;;;;;;10323082;28;20238;-64
2021/12/02 18:44:36;;;;;;;1.63;0.90;;;16.70;48.40;;;;;;10329421;28;20226;-63
2021/12/02 18:49:58;;;;;;;2.20;1.77;;;16.70;48.40;;;;;;10331785;28;20195;-64
2021/12/02 18:55:22;;;;;;;3.63;2.43;;;16.70;48.30;;;;;;10330985;28;20225;-64
2021/12/02 19:00:45;;;;;;;3.33;2.30;;;16.60;48.00;;;;;;10329286;28;20214;-64
2021/12/02 19:06:12;;;;;;;4.50;3.20;;;16.60;47.70;;;;;;10321555;28;20225;-64
2021/12/02 19:28:33;;;;;;;4.13;2.90;;;16.70;46.90;;;;;;10299448;28;20212;-66
2021/12/02 19:33:55;;;;;;;8.63;5.77;;;16.80;47.20;;;;;;10328920;28;20202;-64
2021/12/02 19:39:17;;;;;;;8.93;5.80;;;16.70;47.30;;;;;;10329848;28;20233;-65
2021/12/02 19:44:41;;;;;;;6.23;4.93;;;16.70;47.30;;;;;;10327492;28;20222;-64
2021/12/02 19:50:04;;;;;;;5.10;4.33;;;16.70;47.40;;;;;;10327431;28;20202;-64
2021/12/02 19:55:26;;;;;;;5.53;4.03;;;16.60;47.40;;;;;;10328133;28;20215;-65
2021/12/02 20:00:50;;;;;;;6.57;4.37;;;16.60;47.40;;;;;;10327949;28;20592;-65
2021/12/02 20:06:12;;;;;;;8.53;5.80;;;16.60;47.50;;;;;;10331046;28;20214;-66
2021/12/02 20:11:34;;;;;;;10.50;6.37;;;16.60;47.20;;;;;;10327313;28;20194;-63
2021/12/02 20:17:03;;;;;;;8.27;5.53;;;16.70;47.10;;;;;;10325461;28;20226;-65
2021/12/02 20:22:26;;;;;;;6.53;4.87;;;16.70;46.70;;;;;;10322002;28;20216;-64
2021/12/02 20:27:49;;;;;;;7.57;4.77;;;16.70;46.40;;;;;;10307941;28;20215;-65
2021/12/02 20:33:12;;;;;;;8.33;5.20;;;16.70;46.30;;;;;;10307689;28;20270;-64
2021/12/02 20:38:35;;;;;;;8.90;5.63;;;16.70;46.40;;;;;;10312143;28;20589;-65
2021/12/02 20:43:57;;;;;;;7.70;4.90;;;16.70;46.50;;;;;;10307349;28;20219;-65
2021/12/02 20:49:38;;;;;;;6.13;4.47;;;16.70;46.60;;;;;;10306578;28;20699;-65
2021/12/02 20:55:05;;;;;;;6.00;4.13;;;16.70;46.90;;;;;;10308675;28;20373;-64
2021/12/02 21:00:31;;;;;;;4.83;3.73;;;16.70;47.10;;;;;;10309445;28;20187;-64
2021/12/02 21:05:55;;;;;;;4.13;3.20;;;16.70;47.20;;;;;;10318289;28;20216;-65
2021/12/02 21:11:17;;;;;;;4.03;3.17;;;16.60;47.10;;;;;;10313653;28;20545;-62
2021/12/02 21:16:44;;;;;;;3.97;3.00;;;16.70;47.00;;;;;;10315611;28;20323;-62
2021/12/02 21:22:08;;;;;;;4.67;2.97;;;16.70;46.70;;;;;;10310027;28;20224;-64
2021/12/02 21:27:30;;;;;;;3.60;2.77;;;16.70;46.40;;;;;;10312175;28;20699;-63
2021/12/02 21:32:54;;;;;;;3.83;2.80;;;16.80;46.40;;;;;;10313027;28;20195;-63
2021/12/02 21:38:18;;;;;;;2.87;2.30;;;16.80;46.20;;;;;;10311605;28;20217;-64
2021/12/02 21:43:44;;;;;;;3.17;2.40;;;16.80;46.40;;;;;;10330457;28;20730;-65
2021/12/02 21:49:06;;;;;;;4.00;2.60;;;16.70;46.60;;;;;;10329834;28;20231;-65
2021/12/02 21:54:30;;;;;;;3.87;2.30;;;16.70;46.60;;;;;;10331705;28;20577;-65
2021/12/02 22:00:01;;;;;;;2.87;2.30;;;16.70;46.80;;;;;;10324319;28;20204;-65
2021/12/02 22:05:23;;;;;;;3.87;2.63;;;16.70;46.80;;;;;;10324072;28;20216;-65
2021/12/02 22:10:46;;;;;;;2.30;2.07;;;16.70;46.90;;;;;;10302682;28;20191;-64
2021/12/02 22:16:09;;;;;;;4.00;2.20;;;16.60;47.00;;;;;;10331759;28;20217;-65
2021/12/02 22:21:32;;;;;;;3.20;2.40;;;16.60;47.00;;;;;;10314489;28;20558;-64
2021/12/02 22:26:55;;;;;;;2.90;2.10;;;16.60;46.90;;;;;;10332040;28;20218;-64
2021/12/02 22:32:18;;;;;;;3.20;2.13;;;16.60;46.80;;;;;;10331689;28;20801;-65
2021/12/02 22:37:41;;;;;;;3.27;2.07;;;16.60;46.50;;;;;;10331533;28;20290;-64
2021/12/02 22:43:05;;;;;;;1.90;1.60;;;16.60;46.40;;;;;;10316872;28;20222;-63
2021/12/02 22:48:27;;;;;;;2.70;1.87;;;16.60;46.60;;;;;;10329821;28;20219;-64
2021/12/02 22:53:49;;;;;;;2.30;2.10;;;16.60;46.50;;;;;;10324302;28;20658;-65
2021/12/02 22:59:13;;;;;;;2.20;2.00;;;16.70;46.40;;;;;;10307106;28;20231;-64
2021/12/02 23:04:35;;;;;;;2.57;2.37;;;16.70;46.40;;;;;;10290742;28;20694;-65
2021/12/02 23:09:57;;;;;;;2.90;2.60;;;16.60;46.40;;;;;;10328061;28;20214;-64
2021/12/02 23:15:21;;;;;;;2.60;2.30;;;16.60;46.60;;;;;;10329856;28;20218;-64
2021/12/02 23:20:43;;;;;;;3.70;2.90;;;16.60;46.70;;;;;;10329215;28;20198;-65
2021/12/02 23:26:13;;;;;;;2.80;2.60;;;16.60;46.80;;;;;;10327046;28;20235;-64
2021/12/02 23:31:37;;;;;;;2.90;2.60;;;16.60;46.80;;;;;;10324723;28;20676;-64
2021/12/02 23:37:00;;;;;;;2.63;2.13;;;16.60;46.60;;;;;;10330079;28;20222;-64
2021/12/02 23:42:22;;;;;;;2.60;2.40;;;16.60;46.60;;;;;;10328329;28;20242;-64
2021/12/02 23:47:46;;;;;;;2.63;2.43;;;16.60;46.40;;;;;;10327945;28;20229;-65
2021/12/02 23:53:08;;;;;;;4.17;2.63;;;16.60;46.50;;;;;;10321130;28;20199;-64
2021/12/02 23:58:30;;;;;;;2.80;2.03;;;16.60;46.50;;;;;;10328931;28;20227;-64
